Time;durP1;ratioP1;P1;durP2;ratioP2;P2;SDS_P1;SDS_P2;PMS_P1;PMS_P2;Temp;Humidity;BMP_temperature;BMP_pressure;BME280_temperature;BME280_humidity;BME280_pressure;Samples;Min_cycle;Max_cycle;Signal;HPM_P1;HPM_P2
2022/11/13 00:01:20;;;;;;;19.67;16.50;;;5.90;95.50;;;;;;5035314;28;20075;-78
2022/11/13 00:03:46;;;;;;;23.13;16.50;;;6.00;95.60;;;;;;5085594;28;20080;-80
2022/11/13 00:06:13;;;;;;;22.48;17.38;;;6.00;95.60;;;;;;5051762;28;20098;-79
2022/11/13 00:08:39;;;;;;;21.30;16.67;;;6.00;95.60;;;;;;5051682;28;20079;-77
2022/11/13 00:11:08;;;;;;;23.73;17.52;;;5.90;95.60;;;;;;5035346;28;20044;-79
2022/11/13 00:13:34;;;;;;;19.23;17.02;;;6.00;95.60;;;;;;5085310;28;20039;-76
2022/11/13 00:16:02;;;;;;;20.33;16.92;;;6.00;95.70;;;;;;5051616;28;20045;-79
2022/11/13 00:18:29;;;;;;;18.17;16.27;;;6.00;95.70;;;;;;5085182;28;20045;-76
2022/11/13 00:20:57;;;;;;;19.40;16.48;;;6.00;95.70;;;;;;5068240;28;20051;-79
2022/11/13 00:23:22;;;;;;;17.30;15.00;;;5.90;95.70;;;;;;5051887;28;20449;-78
2022/11/13 00:25:48;;;;;;;19.50;16.23;;;5.90;95.60;;;;;;5085177;28;20041;-78
2022/11/13 00:28:14;;;;;;;24.73;18.20;;;5.90;95.70;;;;;;5034864;28;20048;-77
2022/11/13 00:30:40;;;;;;;25.83;20.15;;;5.90;95.70;;;;;;5068219;28;20033;-79
2022/11/13 00:33:06;;;;;;;25.23;19.60;;;5.90;95.90;;;;;;5051539;28;20036;-78
2022/11/13 00:35:32;;;;;;;25.35;20.77;;;6.00;95.90;;;;;;5051735;28;20040;-78
2022/11/13 00:37:58;;;;;;;27.60;21.92;;;6.10;96.00;;;;;;5034773;28;20052;-76
2022/11/13 00:40:24;;;;;;;24.83;20.35;;;6.10;96.00;;;;;;5051363;28;20045;-79
2022/11/13 00:42:49;;;;;;;25.42;21.38;;;6.10;96.00;;;;;;5054808;28;20048;-77
2022/11/13 00:45:15;;;;;;;26.80;20.38;;;6.10;96.10;;;;;;5042226;28;20048;-76
2022/11/13 00:47:41;;;;;;;25.65;20.13;;;6.10;96.00;;;;;;5042195;28;20420;-77
2022/11/13 00:50:07;;;;;;;21.73;18.92;;;6.10;96.10;;;;;;5058802;28;20041;-76
2022/11/13 00:52:32;;;;;;;22.40;19.85;;;6.20;96.10;;;;;;5058986;28;20123;-77
2022/11/13 00:54:58;;;;;;;22.48;18.70;;;6.10;96.10;;;;;;5058773;28;20487;-78
2022/11/13 00:57:24;;;;;;;24.15;20.60;;;6.20;96.20;;;;;;5058473;28;20060;-76
2022/11/13 00:59:49;;;;;;;24.45;19.77;;;6.20;96.20;;;;;;5041990;28;20040;-78
2022/11/13 01:02:15;;;;;;;24.20;20.48;;;6.30;96.20;;;;;;5041909;28;20044;-77
2022/11/13 01:04:41;;;;;;;26.95;21.00;;;6.30;96.30;;;;;;5041829;28;20040;-77
2022/11/13 01:07:07;;;;;;;22.90;19.60;;;6.30;96.30;;;;;;5041761;28;20044;-78
2022/11/13 01:09:33;;;;;;;23.40;18.90;;;6.30;96.20;;;;;;5074937;28;20145;-78
2022/11/13 01:11:58;;;;;;;23.48;18.73;;;6.30;96.10;;;;;;5058374;28;20044;-79
2022/11/13 01:14:24;;;;;;;25.27;19.33;;;6.30;96.10;;;;;;5041795;28;20123;-78
2022/11/13 01:16:50;;;;;;;22.40;18.50;;;6.30;96.10;;;;;;5058674;28;20036;-78
2022/11/13 01:19:16;;;;;;;20.58;18.23;;;6.30;96.10;;;;;;5058215;28;20068;-79
2022/11/13 01:21:41;;;;;;;24.42;18.90;;;6.30;96.00;;;;;;5058462;28;20098;-79
2022/11/13 01:24:07;;;;;;;24.30;19.75;;;6.30;96.00;;;;;;5074950;28;20410;-79
2022/11/13 01:26:33;;;;;;;22.17;17.70;;;6.30;96.00;;;;;;5041417;28;20042;-77
2022/11/13 01:28:59;;;;;;;23.67;19.08;;;6.30;96.00;;;;;;5041337;28;20105;-78
2022/11/13 01:31:28;;;;;;;18.15;15.25;;;6.30;96.00;;;;;;5058132;28;20036;-78
2022/11/13 01:33:54;;;;;;;21.38;17.90;;;6.30;96.00;;;;;;5057933;28;20048;-78
2022/11/13 01:36:23;;;;;;;19.52;16.77;;;6.30;96.00;;;;;;5057911;28;20052;-79
2022/11/13 01:38:49;;;;;;;20.50;17.48;;;6.30;95.90;;;;;;5058003;28;20376;-77
2022/11/13 01:41:18;;;;;;;21.85;16.98;;;6.20;95.70;;;;;;5057763;28;20127;-76
2022/11/13 01:43:44;;;;;;;19.95;16.88;;;6.20;95.60;;;;;;5057811;28;20062;-77
2022/11/13 01:46:37;;;;;;;21.60;17.77;;;6.10;95.60;;;;;;5074461;28;20040;-79
2022/11/13 01:49:22;;;;;;;20.67;16.23;;;6.10;95.60;;;;;;5074267;28;20037;-77
2022/11/13 01:51:53;;;;;;;20.60;16.63;;;6.00;95.60;;;;;;5057422;28;20120;-77
2022/11/13 01:54:23;;;;;;;23.42;18.48;;;6.00;95.60;;;;;;5057402;28;20043;-77
2022/11/13 01:56:50;;;;;;;23.52;19.40;;;6.00;95.60;;;;;;5073965;28;20084;-78
2022/11/13 01:59:20;;;;;;;20.45;17.00;;;6.00;95.60;;;;;;5074011;28;20045;-79
2022/11/13 02:01:46;;;;;;;22.10;17.05;;;6.00;95.70;;;;;;5074413;28;20040;-79
2022/11/13 02:04:12;;;;;;;22.77;17.48;;;6.00;95.80;;;;;;5040770;28;20048;-77
2022/11/13 02:06:48;;;;;;;25.35;19.70;;;6.00;95.80;;;;;;5057325;28;20127;-78
2022/11/13 02:09:17;;;;;;;24.52;19.20;;;6.00;95.70;;;;;;5057170;28;20176;-79
2022/11/13 02:11:43;;;;;;;25.95;19.35;;;6.00;95.70;;;;;;5073904;28;20094;-76
2022/11/13 02:14:11;;;;;;;20.90;17.42;;;6.00;95.70;;;;;;5040527;28;20045;-78
2022/11/13 02:16:40;;;;;;;24.55;19.35;;;5.90;95.70;;;;;;5073969;28;20044;-79
2022/11/13 02:19:13;;;;;;;23.60;19.10;;;6.00;95.80;;;;;;5057361;28;20071;-79
2022/11/13 02:22:02;;;;;;;24.35;19.30;;;5.90;95.80;;;;;;5073828;28;20482;-78
2022/11/13 02:24:39;;;;;;;29.70;21.48;;;6.00;95.90;;;;;;5057350;28;20040;-76
2022/11/13 02:27:13;;;;;;;16.42;13.63;;;6.00;95.90;;;;;;5057006;28;20181;-79
2022/11/13 02:29:39;;;;;;;24.38;19.83;;;6.00;95.90;;;;;;5057211;28;20041;-79
2022/11/13 02:32:04;;;;;;;26.70;21.23;;;6.10;96.10;;;;;;5056954;28;20506;-77
2022/11/13 02:34:30;;;;;;;26.23;21.08;;;6.10;96.20;;;;;;5040216;28;20036;-76
2022/11/13 02:36:56;;;;;;;25.08;18.38;;;6.10;96.20;;;;;;5056924;28;20040;-77
2022/11/13 02:39:22;;;;;;;25.05;20.40;;;6.10;96.10;;;;;;5056736;28;20036;-78
2022/11/13 02:41:47;;;;;;;23.85;18.77;;;6.10;96.20;;;;;;5040357;28;20064;-79
2022/11/13 02:44:13;;;;;;;21.65;17.75;;;6.20;96.20;;;;;;5040097;28;20032;-77
2022/11/13 02:46:39;;;;;;;26.98;21.30;;;6.20;96.20;;;;;;5073277;28;20033;-78
2022/11/13 02:49:05;;;;;;;24.70;19.40;;;6.20;96.20;;;;;;5073017;28;20094;-77
2022/11/13 02:51:30;;;;;;;24.88;18.27;;;6.20;96.20;;;;;;5056460;28;20072;-78
2022/11/13 02:53:56;;;;;;;24.20;19.98;;;6.20;96.10;;;;;;5056519;28;20182;-79
2022/11/13 02:56:22;;;;;;;23.98;20.55;;;6.20;96.10;;;;;;5056130;28;20055;-77
2022/11/13 02:58:47;;;;;;;20.90;18.67;;;6.20;96.10;;;;;;5056442;28;20511;-77
2022/11/13 03:01:13;;;;;;;21.73;18.73;;;6.30;96.20;;;;;;5056561;28;20040;-77
2022/11/13 03:03:39;;;;;;;28.65;20.13;;;6.20;96.20;;;;;;5039836;28;20483;-78
2022/11/13 03:06:05;;;;;;;25.83;18.30;;;6.30;96.30;;;;;;5055901;28;20051;-77
2022/11/13 03:08:30;;;;;;;27.42;21.15;;;6.30;96.30;;;;;;5056375;28;20066;-77
2022/11/13 03:10:56;;;;;;;25.88;20.25;;;6.30;96.30;;;;;;5056170;28;20037;-79
2022/11/13 03:13:22;;;;;;;27.00;20.73;;;6.30;96.30;;;;;;5072750;28;20484;-78
2022/11/13 03:15:48;;;;;;;28.83;21.17;;;6.30;96.30;;;;;;5056364;28;20052;-79
2022/11/13 03:18:13;;;;;;;25.48;19.48;;;6.30;96.30;;;;;;5039506;28;20036;-78
2022/11/13 03:20:42;;;;;;;24.88;19.23;;;6.30;96.20;;;;;;5072426;28;20044;-79
2022/11/13 03:23:08;;;;;;;24.50;19.17;;;6.20;96.20;;;;;;5072830;28;20452;-76
2022/11/13 03:25:34;;;;;;;23.80;18.67;;;6.20;96.20;;;;;;5056099;28;20431;-78
2022/11/13 03:28:00;;;;;;;23.52;20.00;;;6.20;96.20;;;;;;5072525;28;20041;-79
2022/11/13 03:30:26;;;;;;;26.90;21.52;;;6.20;96.10;;;;;;5055657;28;20037;-79
2022/11/13 03:32:54;;;;;;;29.77;22.42;;;6.20;96.10;;;;;;5055877;28;20032;-77
2022/11/13 03:35:21;;;;;;;24.02;18.67;;;6.20;96.10;;;;;;5055631;28;20040;-78
2022/11/13 03:37:47;;;;;;;28.85;19.02;;;6.20;96.20;;;;;;5072547;28;20435;-77
2022/11/13 03:40:13;;;;;;;24.60;20.73;;;6.20;96.20;;;;;;5038954;28;20044;-78
2022/11/13 03:42:38;;;;;;;29.50;22.05;;;6.20;96.20;;;;;;5055573;28;20127;-77
2022/11/13 03:45:04;;;;;;;24.88;21.02;;;6.20;96.20;;;;;;5055655;28;20444;-77
2022/11/13 03:47:30;;;;;;;23.85;19.35;;;6.20;96.10;;;;;;5038805;28;20377;-77
2022/11/13 03:49:56;;;;;;;25.75;21.30;;;6.20;96.10;;;;;;5055245;28;20037;-78
2022/11/13 03:52:21;;;;;;;22.80;19.92;;;6.20;96.20;;;;;;5055344;28;20075;-79
2022/11/13 03:54:47;;;;;;;25.83;20.10;;;6.20;96.20;;;;;;5055344;28;20041;-79
2022/11/13 03:57:13;;;;;;;27.20;21.05;;;6.20;96.30;;;;;;5054997;28;20051;-80
2022/11/13 03:59:38;;;;;;;24.20;19.90;;;6.30;96.20;;;;;;5038883;28;20131;-79
2022/11/13 04:02:04;;;;;;;26.85;20.08;;;6.30;96.20;;;;;;5055150;28;20480;-78
2022/11/13 04:04:29;;;;;;;27.27;20.70;;;6.30;96.20;;;;;;5055288;28;20040;-78
2022/11/13 04:06:55;;;;;;;26.38;20.35;;;6.30;96.10;;;;;;5055191;28;20068;-79
2022/11/13 04:09:21;;;;;;;22.55;19.67;;;6.30;96.20;;;;;;5054990;28;20056;-76
2022/11/13 04:11:46;;;;;;;23.27;20.25;;;6.30;96.20;;;;;;5055462;28;20088;-78
2022/11/13 04:14:12;;;;;;;27.52;21.83;;;6.30;96.20;;;;;;5055100;28;20502;-78
2022/11/13 04:16:38;;;;;;;25.45;21.05;;;6.30;96.20;;;;;;5038497;28;20040;-76
2022/11/13 04:19:04;;;;;;;24.30;20.38;;;6.30;96.20;;;;;;5070997;28;20049;-78
2022/11/13 04:21:29;;;;;;;26.77;22.00;;;6.30;96.20;;;;;;5038739;28;20549;-76
2022/11/13 04:23:55;;;;;;;27.40;22.15;;;6.40;96.20;;;;;;5071684;28;20044;-79
2022/11/13 04:26:21;;;;;;;25.83;21.58;;;6.40;96.20;;;;;;5038661;28;20182;-77
2022/11/13 04:28:46;;;;;;;25.02;20.58;;;6.40;96.30;;;;;;5054879;28;20048;-79
2022/11/13 04:31:12;;;;;;;27.88;22.20;;;6.40;96.30;;;;;;5038235;28;20041;-79
2022/11/13 04:33:38;;;;;;;27.58;22.23;;;6.40;96.30;;;;;;5071589;28;20036;-77
2022/11/13 04:36:04;;;;;;;32.08;22.77;;;6.40;96.30;;;;;;5055743;28;20086;-78
2022/11/13 04:38:29;;;;;;;28.48;21.92;;;6.50;96.30;;;;;;5056073;28;20052;-80
2022/11/13 04:43:39;;;;;;;26.95;22.73;;;6.50;96.20;;;;;;5073307;28;20045;-78
2022/11/13 04:46:05;;;;;;;30.10;23.00;;;6.50;96.20;;;;;;5071768;28;20058;-79
2022/11/13 04:48:30;;;;;;;24.40;20.02;;;6.60;96.20;;;;;;5054834;28;20480;-76
2022/11/13 04:50:56;;;;;;;27.50;23.10;;;6.60;96.30;;;;;;5054694;28;20624;-78
2022/11/13 04:53:22;;;;;;;29.35;23.83;;;6.60;96.30;;;;;;5055111;28;20036;-78
2022/11/13 04:55:47;;;;;;;30.15;22.92;;;6.60;96.30;;;;;;5071603;28;20043;-77
2022/11/13 04:58:13;;;;;;;28.75;22.08;;;6.60;96.20;;;;;;5054357;28;20577;-80
2022/11/13 05:00:39;;;;;;;30.83;23.58;;;6.60;96.20;;;;;;5037974;28;20059;-78
2022/11/13 05:03:04;;;;;;;26.85;21.23;;;6.60;96.10;;;;;;5054586;28;20037;-76
2022/11/13 05:05:30;;;;;;;27.17;21.42;;;6.60;96.10;;;;;;5038282;28;20048;-79
2022/11/13 05:07:56;;;;;;;27.00;20.92;;;6.50;96.10;;;;;;5037905;28;20516;-77
2022/11/13 05:10:21;;;;;;;27.75;21.92;;;6.50;96.10;;;;;;5038167;28;20040;-78
2022/11/13 05:12:47;;;;;;;27.80;22.05;;;6.50;96.10;;;;;;5054741;28;20036;-76
2022/11/13 05:15:13;;;;;;;26.80;21.77;;;6.50;96.10;;;;;;5054463;28;20040;-79
2022/11/13 05:17:38;;;;;;;25.23;20.40;;;6.50;96.10;;;;;;5071238;28;20040;-77
2022/11/13 05:20:05;;;;;;;26.80;21.73;;;6.50;96.00;;;;;;5054582;28;20387;-78
2022/11/13 05:22:30;;;;;;;27.52;21.92;;;6.40;96.10;;;;;;5054747;28;20041;-79
2022/11/13 05:24:56;;;;;;;26.85;22.27;;;6.40;96.00;;;;;;5037789;28;20291;-78
2022/11/13 05:27:22;;;;;;;26.60;21.40;;;6.40;96.00;;;;;;5054239;28;20041;-77
2022/11/13 05:29:47;;;;;;;27.60;21.95;;;6.40;96.00;;;;;;5055957;28;20036;-79
2022/11/13 05:32:13;;;;;;;29.05;20.60;;;6.40;96.00;;;;;;5058079;28;20047;-77
2022/11/13 05:34:39;;;;;;;28.05;21.52;;;6.40;96.00;;;;;;5041334;28;20036;-77
2022/11/13 05:37:04;;;;;;;27.00;22.55;;;6.30;95.90;;;;;;5058188;28;20043;-77
2022/11/13 05:39:30;;;;;;;29.13;21.73;;;6.30;95.90;;;;;;5074760;28;20037;-77
2022/11/13 05:41:56;;;;;;;26.05;20.85;;;6.30;96.00;;;;;;5057869;28;20418;-75
2022/11/13 05:44:21;;;;;;;30.00;22.02;;;6.30;96.00;;;;;;5057675;28;20044;-76
2022/11/13 05:46:47;;;;;;;27.77;21.17;;;6.20;95.90;;;;;;5091285;28;20496;-76
2022/11/13 05:49:13;;;;;;;27.33;21.55;;;6.20;95.90;;;;;;5121882;27;20040;-77
2022/11/13 05:51:38;;;;;;;28.92;22.60;;;6.20;95.90;;;;;;5059603;28;20138;-76
2022/11/13 05:54:05;;;;;;;26.55;20.42;;;6.20;95.80;;;;;;5052162;28;20037;-77
2022/11/13 05:56:33;;;;;;;23.92;19.88;;;6.10;95.90;;;;;;5040908;28;20063;-79
2022/11/13 05:59:00;;;;;;;26.70;20.92;;;6.10;95.90;;;;;;5057716;28;20063;-79
2022/11/13 06:01:30;;;;;;;24.48;20.48;;;6.10;95.90;;;;;;5057643;28;20056;-78
2022/11/13 06:03:57;;;;;;;25.77;22.17;;;6.10;95.90;;;;;;5057767;28;20113;-79
2022/11/13 06:06:24;;;;;;;31.10;23.23;;;6.00;95.90;;;;;;5074047;28;20036;-80
2022/11/13 06:08:52;;;;;;;28.00;22.05;;;6.10;95.90;;;;;;5057242;28;20075;-76
2022/11/13 06:11:20;;;;;;;27.00;21.65;;;6.00;95.90;;;;;;5057526;28;20507;-79
2022/11/13 06:13:47;;;;;;;24.75;19.70;;;6.00;95.90;;;;;;5056868;28;20033;-78
2022/11/13 06:16:19;;;;;;;28.27;22.17;;;6.00;95.90;;;;;;5087634;28;20037;-79
2022/11/13 06:18:45;;;;;;;22.23;19.13;;;6.00;95.90;;;;;;5096679;28;20044;-77
2022/11/13 06:21:22;;;;;;;30.25;22.52;;;5.90;95.80;;;;;;5039900;28;20068;-79
2022/11/13 06:23:48;;;;;;;28.88;22.60;;;6.00;95.90;;;;;;5071879;28;20452;-78
2022/11/13 06:26:16;;;;;;;33.53;21.52;;;6.00;95.90;;;;;;5040168;28;20078;-77
2022/11/13 06:28:42;;;;;;;26.10;22.05;;;5.90;95.80;;;;;;5073360;28;20043;-79
2022/11/13 06:31:17;;;;;;;29.10;22.42;;;5.90;95.90;;;;;;5073554;28;20044;-76
2022/11/13 06:33:43;;;;;;;26.08;20.77;;;5.90;95.90;;;;;;5056958;28;20041;-76
2022/11/13 06:36:12;;;;;;;30.15;22.13;;;5.90;95.80;;;;;;5056848;28;20051;-77
2022/11/13 06:38:39;;;;;;;30.20;22.80;;;5.90;95.90;;;;;;5056956;28;20122;-77
2022/11/13 06:41:05;;;;;;;28.48;21.63;;;5.80;95.80;;;;;;5038599;28;20131;-78
2022/11/13 06:43:31;;;;;;;28.50;21.70;;;5.80;95.90;;;;;;5056507;28;20045;-79
2022/11/13 06:45:57;;;;;;;28.27;21.98;;;5.80;95.90;;;;;;5056669;28;20055;-78
2022/11/13 06:48:23;;;;;;;30.50;21.85;;;5.80;95.90;;;;;;5056807;28;20052;-79
2022/11/13 06:50:50;;;;;;;28.65;21.88;;;5.80;95.90;;;;;;5040140;28;20120;-78
2022/11/13 06:53:16;;;;;;;27.95;22.10;;;5.80;96.00;;;;;;5073182;28;20033;-79
2022/11/13 06:55:47;;;;;;;28.02;22.63;;;5.80;96.00;;;;;;5056702;28;20059;-76
2022/11/13 06:58:13;;;;;;;29.30;21.13;;;5.80;96.00;;;;;;5056233;28;20060;-80
2022/11/13 07:00:40;;;;;;;26.65;20.98;;;5.70;95.90;;;;;;5072897;28;20047;-80
2022/11/13 07:03:23;;;;;;;25.63;20.58;;;5.80;95.90;;;;;;5056313;28;20048;-79
2022/11/13 07:05:49;;;;;;;25.60;21.20;;;5.70;95.90;;;;;;5072997;28;20052;-78
2022/11/13 07:08:15;;;;;;;26.75;20.58;;;5.70;95.90;;;;;;5056138;28;20037;-78
2022/11/13 07:10:42;;;;;;;25.65;20.17;;;5.70;95.90;;;;;;5056122;28;20044;-77
2022/11/13 07:13:08;;;;;;;27.80;22.60;;;5.70;95.90;;;;;;5039791;28;20090;-77
2022/11/13 07:15:35;;;;;;;28.05;21.75;;;5.70;96.00;;;;;;5072990;28;20446;-78
2022/11/13 07:18:02;;;;;;;32.60;23.50;;;5.70;96.00;;;;;;5055889;28;20040;-79
2022/11/13 07:20:28;;;;;;;26.88;22.42;;;5.80;96.10;;;;;;5056071;28;20050;-77
2022/11/13 07:22:58;;;;;;;25.92;20.40;;;5.80;96.10;;;;;;5072746;28;20131;-78
2022/11/13 07:25:25;;;;;;;27.50;21.75;;;5.80;96.00;;;;;;5055971;28;20041;-78
2022/11/13 07:27:50;;;;;;;28.98;21.83;;;5.80;96.10;;;;;;5072326;28;20048;-79
2022/11/13 07:30:16;;;;;;;32.80;23.35;;;5.80;96.00;;;;;;5056049;28;20119;-78
2022/11/13 07:32:42;;;;;;;27.95;21.75;;;5.80;96.00;;;;;;5039176;28;20059;-79
2022/11/13 07:35:08;;;;;;;27.45;22.40;;;5.70;95.90;;;;;;5072349;28;20036;-79
2022/11/13 07:37:34;;;;;;;28.10;20.58;;;5.70;96.00;;;;;;5055631;28;20075;-79
2022/11/13 07:40:00;;;;;;;29.17;22.45;;;5.80;96.00;;;;;;5055569;28;20076;-78
2022/11/13 07:42:26;;;;;;;29.55;25.95;;;5.80;96.10;;;;;;5072117;28;20052;-79
2022/11/13 07:44:51;;;;;;;28.92;23.58;;;5.80;96.10;;;;;;5072425;28;20040;-77
2022/11/13 07:47:18;;;;;;;28.95;22.05;;;5.80;96.00;;;;;;5038694;28;20044;-79
2022/11/13 07:49:43;;;;;;;28.85;21.85;;;5.80;96.00;;;;;;5072004;28;20082;-78
2022/11/13 07:52:09;;;;;;;23.70;19.45;;;5.80;96.00;;;;;;5055443;28;20080;-76
2022/11/13 07:54:35;;;;;;;27.58;19.05;;;5.90;96.10;;;;;;5072053;28;20089;-78
2022/11/13 07:57:01;;;;;;;20.88;17.63;;;6.00;96.20;;;;;;5071868;28;20052;-77
2022/11/13 07:59:26;;;;;;;26.42;19.05;;;6.00;96.20;;;;;;5055321;28;20043;-78
2022/11/13 08:01:52;;;;;;;24.38;18.40;;;6.10;96.10;;;;;;5038608;28;20040;-77
2022/11/13 08:04:18;;;;;;;24.55;17.83;;;6.20;96.10;;;;;;5055309;28;20045;-79
2022/11/13 08:06:44;;;;;;;25.20;19.60;;;6.20;96.10;;;;;;5072154;28;20032;-79
2022/11/13 08:09:09;;;;;;;22.65;18.20;;;6.30;96.10;;;;;;5055059;28;20479;-77
2022/11/13 08:11:35;;;;;;;27.48;21.30;;;6.40;96.10;;;;;;5055147;28;20123;-76
2022/11/13 08:14:01;;;;;;;24.85;20.95;;;6.50;96.10;;;;;;5055131;28;20072;-78
2022/11/13 08:16:27;;;;;;;28.45;21.23;;;6.50;96.00;;;;;;5038902;28;20048;-78
2022/11/13 08:18:53;;;;;;;27.35;20.60;;;6.60;96.00;;;;;;5055140;28;20041;-78
2022/11/13 08:21:20;;;;;;;25.30;19.95;;;6.70;96.10;;;;;;5055195;28;20043;-78
2022/11/13 08:23:46;;;;;;;27.00;21.88;;;6.80;96.10;;;;;;5071734;28;20055;-76
2022/11/13 08:26:12;;;;;;;27.45;21.60;;;6.90;96.00;;;;;;5038689;28;20044;-78
2022/11/13 08:28:38;;;;;;;22.85;19.38;;;7.00;95.90;;;;;;5054893;28;20045;-77
2022/11/13 08:31:12;;;;;;;28.85;21.10;;;7.00;95.80;;;;;;5071695;28;20384;-78
2022/11/13 08:33:39;;;;;;;27.02;22.13;;;7.10;95.80;;;;;;5054840;28;20101;-78
2022/11/13 08:36:04;;;;;;;22.80;20.08;;;7.20;95.80;;;;;;5071792;28;20105;-78
2022/11/13 08:38:30;;;;;;;23.17;19.17;;;7.30;95.90;;;;;;5037731;28;20524;-77
2022/11/13 08:41:00;;;;;;;22.70;20.30;;;7.40;96.00;;;;;;5071506;28;20048;-79
2022/11/13 08:43:26;;;;;;;27.08;22.25;;;7.40;95.90;;;;;;5034947;28;20045;-79
2022/11/13 08:45:52;;;;;;;27.00;21.77;;;7.50;95.80;;;;;;5067707;28;20401;-79
2022/11/13 08:48:18;;;;;;;24.23;20.98;;;7.50;95.80;;;;;;5034775;28;20127;-78
2022/11/13 08:50:44;;;;;;;27.75;21.63;;;7.50;95.80;;;;;;5034962;28;20044;-79
2022/11/13 08:53:10;;;;;;;23.75;20.70;;;7.50;95.80;;;;;;5035007;28;20361;-78
2022/11/13 08:55:36;;;;;;;22.33;19.33;;;7.60;95.90;;;;;;5050929;28;20465;-78
2022/11/13 08:58:03;;;;;;;23.60;19.45;;;7.60;95.90;;;;;;5067647;28;20104;-80
2022/11/13 09:00:30;;;;;;;23.83;19.77;;;7.70;95.80;;;;;;5051233;28;20080;-81
2022/11/13 09:02:57;;;;;;;25.30;19.63;;;7.70;95.80;;;;;;5051601;28;20049;-79
2022/11/13 09:05:23;;;;;;;22.20;18.35;;;7.80;95.70;;;;;;5054729;28;20086;-78
2022/11/13 09:07:50;;;;;;;23.05;19.20;;;7.90;96.00;;;;;;5055527;28;20114;-79
2022/11/13 09:10:19;;;;;;;20.38;18.15;;;8.00;95.90;;;;;;5055476;28;20120;-81
2022/11/13 09:12:44;;;;;;;18.92;15.50;;;8.10;95.80;;;;;;5055387;28;20047;-81
2022/11/13 09:15:11;;;;;;;20.63;16.08;;;8.20;95.80;;;;;;5055377;28;20135;-78
2022/11/13 09:17:37;;;;;;;20.90;17.83;;;8.30;95.70;;;;;;5038278;28;20045;-79
2022/11/13 09:20:05;;;;;;;21.15;17.63;;;8.40;95.60;;;;;;5055162;28;20101;-79
2022/11/13 09:22:32;;;;;;;20.15;17.27;;;8.60;95.50;;;;;;5071606;28;20040;-79
2022/11/13 09:24:57;;;;;;;19.00;14.43;;;8.60;95.40;;;;;;5038167;28;20052;-80
2022/11/13 09:27:23;;;;;;;19.73;16.25;;;8.80;95.40;;;;;;5054691;28;20037;-79
2022/11/13 09:29:48;;;;;;;17.23;13.90;;;9.00;95.30;;;;;;5054741;28;20033;-79
2022/11/13 09:32:15;;;;;;;18.27;15.98;;;9.10;95.20;;;;;;5021715;28;20124;-79
2022/11/13 09:34:41;;;;;;;17.42;15.57;;;9.20;95.10;;;;;;5038678;28;20044;-78
2022/11/13 09:37:06;;;;;;;17.52;15.60;;;9.40;95.00;;;;;;5058156;28;20041;-79
2022/11/13 09:39:32;;;;;;;18.25;15.93;;;9.60;95.00;;;;;;5041662;28;20549;-81
2022/11/13 09:42:11;;;;;;;17.27;15.13;;;9.70;94.90;;;;;;5040259;28;20040;-79
2022/11/13 09:44:49;;;;;;;18.95;15.88;;;9.80;94.80;;;;;;5071635;28;20080;-79
2022/11/13 09:47:25;;;;;;;17.13;15.40;;;10.00;94.70;;;;;;5054356;28;20041;-78
2022/11/13 09:50:03;;;;;;;19.00;16.33;;;10.10;94.50;;;;;;5037776;28;20068;-79
2022/11/13 09:52:35;;;;;;;18.33;13.93;;;10.30;94.40;;;;;;5054536;28;20037;-80
2022/11/13 09:55:03;;;;;;;14.40;12.93;;;10.40;94.30;;;;;;5037633;28;20504;-80
2022/11/13 09:57:48;;;;;;;15.75;12.82;;;10.50;94.00;;;;;;5053907;28;20056;-79
2022/11/13 10:00:19;;;;;;;17.75;15.50;;;10.60;93.90;;;;;;5070722;28;20102;-80
2022/11/13 10:03:23;;;;;;;15.63;12.20;;;10.70;93.90;;;;;;5054522;28;20084;-79
2022/11/13 10:06:00;;;;;;;13.77;12.18;;;10.80;93.80;;;;;;5054324;28;20106;-80
2022/11/13 10:08:40;;;;;;;14.10;12.60;;;11.00;93.70;;;;;;5037372;28;20043;-79
2022/11/13 10:11:29;;;;;;;12.05;10.85;;;11.00;93.40;;;;;;5054217;28;20135;-78
2022/11/13 10:14:17;;;;;;;13.00;11.43;;;11.10;93.00;;;;;;5045988;28;20049;-79
2022/11/13 10:16:50;;;;;;;16.52;12.27;;;11.30;93.10;;;;;;5037825;28;20429;-78
2022/11/13 10:19:21;;;;;;;14.73;12.03;;;11.50;92.40;;;;;;5070566;28;20041;-80
2022/11/13 10:22:13;;;;;;;15.63;11.20;;;11.70;92.40;;;;;;5054064;28;20045;-80
2022/11/13 10:24:42;;;;;;;15.20;11.70;;;11.80;91.90;;;;;;5014589;28;20087;-78
2022/11/13 10:27:12;;;;;;;12.80;11.50;;;12.00;91.70;;;;;;5037074;28;20052;-77
2022/11/13 10:29:39;;;;;;;13.57;10.85;;;12.10;91.60;;;;;;5037301;28;20067;-77
2022/11/13 10:32:23;;;;;;;13.50;11.93;;;12.30;90.70;;;;;;5053500;28;20079;-79
2022/11/13 10:35:00;;;;;;;12.02;10.73;;;12.40;90.50;;;;;;5037208;28;20114;-77
2022/11/13 10:37:50;;;;;;;12.55;11.13;;;12.50;90.20;;;;;;5053635;28;20041;-76
2022/11/13 10:40:24;;;;;;;11.60;10.40;;;12.70;89.70;;;;;;5036984;28;20102;-76
2022/11/13 10:42:50;;;;;;;11.77;10.15;;;12.90;89.70;;;;;;5054122;28;20033;-78
2022/11/13 10:45:18;;;;;;;11.25;9.82;;;13.00;89.10;;;;;;5053429;28;20554;-79
2022/11/13 10:47:49;;;;;;;11.88;9.80;;;13.10;89.30;;;;;;5053342;28;20140;-79
2022/11/13 10:50:21;;;;;;;11.75;10.18;;;13.30;88.60;;;;;;5086969;28;20361;-80
2022/11/13 10:52:49;;;;;;;10.70;9.43;;;13.40;88.40;;;;;;5036513;28;20052;-79
2022/11/13 10:55:36;;;;;;;11.52;9.80;;;13.50;88.30;;;;;;5070074;28;20037;-79
2022/11/13 10:58:15;;;;;;;10.98;9.52;;;13.80;88.00;;;;;;5052851;28;20057;-79
2022/11/13 11:00:43;;;;;;;10.50;8.85;;;14.00;87.60;;;;;;5036501;28;20480;-79
2022/11/13 11:03:28;;;;;;;9.15;7.80;;;14.20;87.20;;;;;;5036519;28;20124;-80
2022/11/13 11:05:58;;;;;;;;;;;14.40;85.80;;;;;;5070577;28;20124;-79
2022/11/13 11:08:36;;;;;;;9.45;8.45;;;14.50;80.20;;;;;;5086505;28;19967;-79
2022/11/13 11:13:51;;;;;;;9.98;8.88;;;14.70;85.80;;;;;;5086769;28;20392;-81
2022/11/13 11:16:21;;;;;;;9.48;8.55;;;14.70;84.90;;;;;;5036182;28;20041;-81
2022/11/13 11:18:54;;;;;;;9.32;7.63;;;15.00;84.90;;;;;;5036189;28;20072;-81
2022/11/13 11:21:25;;;;;;;8.95;8.07;;;15.10;84.10;;;;;;5052657;28;20041;-80
2022/11/13 11:23:59;;;;;;;8.15;7.35;;;15.10;84.10;;;;;;5069466;28;20091;-81
2022/11/13 11:26:46;;;;;;;8.93;7.95;;;15.10;83.30;;;;;;5069275;28;20063;-80
2022/11/13 11:29:25;;;;;;;8.38;7.57;;;15.10;81.20;;;;;;5052577;28;20068;-81
2022/11/13 11:32:03;;;;;;;11.48;8.35;;;15.10;82.80;;;;;;5052737;28;20128;-80
2022/11/13 11:34:52;;;;;;;9.52;8.07;;;15.00;81.70;;;;;;5052298;28;20036;-79
2022/11/13 11:37:20;;;;;;;9.90;8.05;;;14.80;82.00;;;;;;5035871;28;20124;-79
2022/11/13 11:40:01;;;;;;;8.50;7.70;;;14.70;82.30;;;;;;5035904;28;20037;-79
2022/11/13 11:42:31;;;;;;;8.80;7.90;;;14.70;82.00;;;;;;5068986;28;20048;-80
2022/11/13 11:45:22;;;;;;;13.15;8.52;;;14.70;82.30;;;;;;5069156;28;20040;-80
2022/11/13 11:47:48;;;;;;;8.57;7.78;;;14.60;82.00;;;;;;5052224;28;20041;-79
2022/11/13 11:50:17;;;;;;;8.32;7.43;;;14.50;81.90;;;;;;5052216;28;20090;-81
2022/11/13 11:52:46;;;;;;;11.02;9.57;;;14.40;82.60;;;;;;5037221;28;20512;-79
2022/11/13 11:55:49;;;;;;;10.23;8.43;;;14.30;82.30;;;;;;5062526;28;20060;-80
2022/11/13 11:58:28;;;;;;;9.65;8.57;;;14.20;81.70;;;;;;5068758;28;20520;-79
2022/11/13 12:01:04;;;;;;;10.27;9.20;;;14.20;82.40;;;;;;5082472;28;20044;-80
2022/11/13 12:03:51;;;;;;;8.77;7.88;;;14.30;82.40;;;;;;5072168;28;20064;-80
2022/11/13 12:06:48;;;;;;;9.93;7.80;;;14.60;82.40;;;;;;5055292;28;20048;-80
2022/11/13 12:09:27;;;;;;;8.77;7.82;;;14.90;81.90;;;;;;5056542;28;20040;-81
2022/11/13 12:12:09;;;;;;;8.48;7.57;;;15.20;81.40;;;;;;5091844;28;20082;-80
2022/11/13 12:14:54;;;;;;;9.05;7.82;;;15.30;80.60;;;;;;5075546;28;20418;-80
2022/11/13 12:17:40;;;;;;;8.75;7.53;;;15.50;80.40;;;;;;5075131;28;20071;-80
2022/11/13 12:20:27;;;;;;;8.07;7.38;;;15.70;79.60;;;;;;5091960;28;20044;-79
2022/11/13 12:23:03;;;;;;;8.43;7.53;;;15.90;78.90;;;;;;5075640;28;20198;-79
2022/11/13 12:25:40;;;;;;;8.55;7.63;;;16.10;78.60;;;;;;5071336;28;20037;-81
2022/11/13 12:28:21;;;;;;;9.80;7.97;;;16.10;78.00;;;;;;5051238;28;20457;-81
2022/11/13 12:31:21;;;;;;;8.32;7.18;;;16.30;76.70;;;;;;5034780;28;20045;-81
2022/11/13 12:34:16;;;;;;;8.93;7.47;;;16.50;76.90;;;;;;5050719;28;20429;-78
2022/11/13 12:36:42;;;;;;;;;;;16.70;77.00;;;;;;5035656;28;20037;-80
2022/11/13 12:39:45;;;;;;;9.52;7.57;;;16.90;74.70;;;;;;5036106;28;20256;-77
2022/11/13 12:42:20;;;;;;;7.85;7.05;;;17.10;75.00;;;;;;5038981;28;20558;-78
2022/11/13 12:45:02;;;;;;;13.65;7.40;;;17.40;74.70;;;;;;5065719;28;20043;-77
2022/11/13 12:47:27;;;;;;;11.32;6.97;;;17.60;73.70;;;;;;5078800;28;20510;-78
2022/11/13 12:50:19;;;;;;;9.13;6.25;;;17.90;75.10;;;;;;5078913;28;20040;-77
2022/11/13 12:52:57;;;;;;;8.30;6.18;;;18.10;70.40;;;;;;5092646;28;20613;-77
2022/11/13 12:55:29;;;;;;;6.85;6.00;;;18.30;70.40;;;;;;5078857;28;20551;-78